createdAt,value
2018-11-28T00:02:28.690Z,1.44
2018-11-28T00:07:31.717Z,1.31
2018-11-28T00:12:34.761Z,1.35
2018-11-28T00:17:37.844Z,1.28
2018-11-28T00:22:41.192Z,1.28
2018-11-28T00:27:44.260Z,1.32
2018-11-28T00:32:47.327Z,1.31
2018-11-28T00:37:50.457Z,1.24
2018-11-28T00:42:53.506Z,1.24
2018-11-28T00:48:22.225Z,1.30
2018-11-28T00:53:25.264Z,1.25
2018-11-28T00:58:28.296Z,1.26
2018-11-28T01:03:31.347Z,1.31
2018-11-28T01:08:34.388Z,1.27
2018-11-28T01:13:37.472Z,1.23
2018-11-28T01:18:40.554Z,1.22
2018-11-28T01:23:43.596Z,1.22
2018-11-28T01:28:46.834Z,1.26
2018-11-28T01:33:49.693Z,1.27
2018-11-28T01:38:52.736Z,1.23
2018-11-28T01:43:55.806Z,1.42
2018-11-28T01:48:58.829Z,1.40
2018-11-28T01:54:01.890Z,1.38
2018-11-28T01:59:05.016Z,1.41
2018-11-28T02:04:08.033Z,1.45
2018-11-28T02:09:11.066Z,1.45
2018-11-28T02:14:14.096Z,1.47
2018-11-28T02:19:17.089Z,1.42
2018-11-28T02:24:20.178Z,1.49
2018-11-28T02:29:24.331Z,1.49
2018-11-28T02:34:26.331Z,1.54
2018-11-28T02:39:29.454Z,1.44
2018-11-28T02:44:32.596Z,1.43
2018-11-28T02:49:35.633Z,1.43
2018-11-28T02:54:38.685Z,1.39
2018-11-28T02:59:41.725Z,1.34
2018-11-28T03:04:44.802Z,1.36
2018-11-28T03:09:47.872Z,1.42
2018-11-28T03:14:50.973Z,1.54
2018-11-28T03:19:54.181Z,1.47
2018-11-28T03:24:57.237Z,1.51
2018-11-28T03:30:00.310Z,1.48
2018-11-28T03:35:03.719Z,1.41
2018-11-28T03:40:07.116Z,1.41
2018-11-28T03:45:12.974Z,1.22
2018-11-28T03:50:16.193Z,1.35
2018-11-28T03:55:25.847Z,1.29
2018-11-28T04:00:28.886Z,1.28
2018-11-28T04:05:31.960Z,1.26
2018-11-28T04:10:34.958Z,1.27
2018-11-28T04:15:37.969Z,1.26
2018-11-28T04:20:41.183Z,1.27
2018-11-28T04:25:44.338Z,1.22
2018-11-28T04:30:47.433Z,1.16
2018-11-28T04:35:50.450Z,1.17
2018-11-28T04:40:53.476Z,1.14
2018-11-28T04:45:56.513Z,1.11
2018-11-28T04:50:59.583Z,1.02
2018-11-28T04:56:02.697Z,0.90
2018-11-28T05:01:06.220Z,0.89
2018-11-28T05:06:09.233Z,1.03
2018-11-28T05:11:12.432Z,1.10
2018-11-28T05:16:15.455Z,1.14
2018-11-28T05:21:18.496Z,1.06
2018-11-28T05:26:21.509Z,1.14
2018-11-28T05:31:24.556Z,1.19
2018-11-28T05:36:27.595Z,1.12
2018-11-28T05:41:30.613Z,1.24
2018-11-28T05:46:33.679Z,1.26
2018-11-28T05:51:36.712Z,1.28
2018-11-28T05:56:39.899Z,1.20
2018-11-28T06:01:43.031Z,1.21
2018-11-28T06:06:46.076Z,1.20
2018-11-28T06:11:49.116Z,1.07
2018-11-28T06:16:52.117Z,1.03
2018-11-28T06:21:55.181Z,1.16
2018-11-28T06:26:58.218Z,1.20
2018-11-28T06:32:01.280Z,1.18
2018-11-28T06:37:04.569Z,1.17
2018-11-28T06:42:08.560Z,1.14
2018-11-28T06:47:10.709Z,1.08
2018-11-28T06:52:13.716Z,1.05
2018-11-28T06:57:16.729Z,1.30
2018-11-28T07:02:19.755Z,1.43
2018-11-28T07:07:22.781Z,1.42
2018-11-28T07:12:25.815Z,1.34
2018-11-28T07:17:28.912Z,1.38
2018-11-28T07:22:31.974Z,1.46
2018-11-28T07:27:35.093Z,1.38
2018-11-28T07:32:38.128Z,1.64
2018-11-28T07:37:41.160Z,1.58
2018-11-28T07:42:59.477Z,1.66
2018-11-28T07:48:08.878Z,1.77
2018-11-28T07:53:17.985Z,1.77
2018-11-28T07:58:21.002Z,1.71
2018-11-28T08:03:24.070Z,1.95
2018-11-28T08:08:27.176Z,2.03
2018-11-28T08:13:30.249Z,1.98
2018-11-28T08:18:33.281Z,1.91
2018-11-28T08:23:36.336Z,1.96
2018-11-28T08:28:39.452Z,1.98
2018-11-28T08:33:42.543Z,2.25
2018-11-28T08:38:45.623Z,2.22
2018-11-28T08:43:48.676Z,2.41
2018-11-28T08:48:51.701Z,2.52
2018-11-28T08:53:54.769Z,2.77
2018-11-28T08:58:57.850Z,2.80
2018-11-28T09:04:00.908Z,2.98
2018-11-28T09:09:06.100Z,3.03
2018-11-28T09:14:09.152Z,3.05
2018-11-28T09:19:12.192Z,3.18
2018-11-28T09:24:15.230Z,3.18
2018-11-28T09:29:18.291Z,3.23
2018-11-28T09:34:21.364Z,3.57
2018-11-28T09:39:24.473Z,3.74
2018-11-28T09:44:27.606Z,3.77
2018-11-28T09:49:30.637Z,4.16
2018-11-28T09:54:33.653Z,4.33
2018-11-28T09:59:36.662Z,4.18
2018-11-28T10:04:39.697Z,4.37
2018-11-28T10:09:42.695Z,4.40
2018-11-28T10:14:45.716Z,4.51
2018-11-28T10:19:48.712Z,4.76
2018-11-28T10:24:51.729Z,4.87
2018-11-28T10:29:54.773Z,5.17
2018-11-28T10:34:57.798Z,5.50
2018-11-28T10:40:00.825Z,5.63
2018-11-28T10:45:04.936Z,5.87
2018-11-28T10:50:12.480Z,5.95
2018-11-28T10:55:20.013Z,5.71
2018-11-28T11:00:31.618Z,5.91
2018-11-28T11:05:40.305Z,5.83
2018-11-28T11:10:49.211Z,5.89
2018-11-28T11:15:57.086Z,5.86
2018-11-28T11:21:00.201Z,5.86
2018-11-28T11:26:32.437Z,6.02
2018-11-28T11:31:35.469Z,6.25
2018-11-28T11:36:38.487Z,6.38
2018-11-28T11:41:41.584Z,6.42
2018-11-28T11:46:44.644Z,6.36
2018-11-28T11:51:47.724Z,6.30
2018-11-28T11:56:50.810Z,6.21
2018-11-28T12:01:54.839Z,6.28
2018-11-28T12:06:57.205Z,6.34
2018-11-28T12:12:00.206Z,6.49
2018-11-28T12:17:03.276Z,6.68
2018-11-28T12:22:06.964Z,6.82
2018-11-28T12:27:10.045Z,6.84
2018-11-28T12:32:13.144Z,6.93
2018-11-28T12:37:16.202Z,7.10
2018-11-28T12:42:19.248Z,7.13
2018-11-28T12:47:22.284Z,7.34
2018-11-28T12:52:25.302Z,7.49
2018-11-28T12:57:28.333Z,7.53
2018-11-28T13:02:32.065Z,7.51
2018-11-28T13:07:35.099Z,7.39
2018-11-28T13:12:38.160Z,7.36
2018-11-28T13:17:41.248Z,7.26
2018-11-28T13:22:45.243Z,7.15
2018-11-28T13:27:48.312Z,7.01
2018-11-28T13:32:52.823Z,6.91
2018-11-28T13:38:02.852Z,6.86
2018-11-28T13:43:06.209Z,6.71
2018-11-28T13:48:09.420Z,6.53
2018-11-28T13:53:16.684Z,6.69
2018-11-28T13:58:19.762Z,6.85
2018-11-28T14:03:22.815Z,6.86
2018-11-28T14:08:25.847Z,6.72
2018-11-28T14:13:28.916Z,6.63
2018-11-28T14:18:32.028Z,6.56
2018-11-28T14:23:35.128Z,6.57
2018-11-28T14:28:38.189Z,6.57
2018-11-28T14:33:41.192Z,6.48
2018-11-28T14:38:44.268Z,6.37
2018-11-28T14:43:47.290Z,6.34
2018-11-28T14:48:50.350Z,6.33
2018-11-28T14:53:54.214Z,6.13
2018-11-28T14:58:57.223Z,6.10
2018-11-28T15:04:00.275Z,6.15
2018-11-28T15:09:11.684Z,6.19
2018-11-28T15:14:14.716Z,6.15
2018-11-28T15:19:17.776Z,6.12
2018-11-28T15:24:20.816Z,6.09
2018-11-28T15:29:23.846Z,5.80
2018-11-28T15:34:26.950Z,5.91
2018-11-28T15:39:30.051Z,6.04
2018-11-28T15:44:33.064Z,6.08
2018-11-28T15:49:36.128Z,6.11
2018-11-28T15:54:39.151Z,6.12
2018-11-28T15:59:42.200Z,6.21
2018-11-28T16:04:45.229Z,6.17
2018-11-28T16:10:51.391Z,6.24
2018-11-28T16:15:56.660Z,6.25
2018-11-28T16:20:59.707Z,6.30
2018-11-28T16:26:02.792Z,6.33
2018-11-28T16:31:05.899Z,6.20
2018-11-28T16:36:09.491Z,6.26
2018-11-28T16:41:12.777Z,6.25
2018-11-28T16:46:15.894Z,6.25
2018-11-28T16:51:18.975Z,6.25
2018-11-28T16:56:22.023Z,6.25
2018-11-28T17:01:25.067Z,6.39
2018-11-28T17:06:28.153Z,6.45
2018-11-28T17:11:31.216Z,6.56
2018-11-28T17:16:34.272Z,6.67
2018-11-28T17:21:37.384Z,6.76
2018-11-28T17:26:40.483Z,6.86
2018-11-28T17:31:43.616Z,6.93
2018-11-28T17:36:46.792Z,6.98
2018-11-28T17:41:49.859Z,7.01
2018-11-28T17:46:52.944Z,6.98
2018-11-28T17:51:56.084Z,7.00
2018-11-28T17:56:59.125Z,7.00
2018-11-28T18:02:02.251Z,7.00
2018-11-28T18:07:05.715Z,7.05
2018-11-28T18:12:08.775Z,7.13
2018-11-28T18:17:11.812Z,7.22
2018-11-28T18:22:14.893Z,7.28
2018-11-28T18:27:17.962Z,7.27
2018-11-28T18:32:21.012Z,7.35
2018-11-28T18:37:24.385Z,7.33
2018-11-28T18:42:27.145Z,7.37
2018-11-28T18:47:30.268Z,7.32
2018-11-28T18:52:33.325Z,7.28
2018-11-28T18:57:36.610Z,7.27
2018-11-28T19:02:40.666Z,7.32
2018-11-28T19:07:43.748Z,7.27
2018-11-28T19:12:46.983Z,7.23
2018-11-28T19:17:50.361Z,7.23
2018-11-28T19:22:56.204Z,7.28
2018-11-28T19:27:59.281Z,7.39
2018-11-28T19:33:02.537Z,7.41
2018-11-28T19:38:09.386Z,7.48
2018-11-28T19:43:12.486Z,7.51
2018-11-28T19:48:15.860Z,7.59
2018-11-28T19:53:18.948Z,7.64
2018-11-28T19:58:22.065Z,7.69
2018-11-28T20:03:25.180Z,7.75
2018-11-28T20:20:14.062Z,7.73
2018-11-28T20:25:18.561Z,7.83
2018-11-28T20:30:29.780Z,7.79
2018-11-28T20:35:32.933Z,7.77
2018-11-28T20:40:37.345Z,7.71
2018-11-28T20:47:45.061Z,7.68
2018-11-28T20:52:54.906Z,7.62
2018-11-28T20:58:12.105Z,7.58
2018-11-28T21:03:15.327Z,7.56
2018-11-28T21:08:18.493Z,7.57
2018-11-28T21:13:21.602Z,7.58
2018-11-28T21:18:24.665Z,7.60
2018-11-28T21:23:27.805Z,7.57
2018-11-28T21:28:30.936Z,7.58
2018-11-28T21:33:34.136Z,7.56
2018-11-28T21:38:37.289Z,7.56
2018-11-28T21:43:40.506Z,7.59
2018-11-28T21:48:43.731Z,7.59
2018-11-28T21:53:46.975Z,7.52
2018-11-28T21:58:50.132Z,7.73
2018-11-28T22:03:53.196Z,7.81
2018-11-28T22:09:03.949Z,7.85
2018-11-28T22:19:47.305Z,7.93
2018-11-28T22:24:50.382Z,7.98
2018-11-28T22:29:53.460Z,8.02
2018-11-28T22:34:56.547Z,8.13
2018-11-28T22:39:59.601Z,8.10
2018-11-28T22:45:02.770Z,8.06
2018-11-28T22:50:07.236Z,7.97
2018-11-28T22:55:13.100Z,8.01
2018-11-28T23:00:24.432Z,8.00
2018-11-28T23:05:42.247Z,8.06
2018-11-28T23:10:45.535Z,8.02
2018-11-28T23:15:48.643Z,8.05
2018-11-28T23:20:51.765Z,8.09
2018-11-28T23:25:54.816Z,8.12
2018-11-28T23:30:57.865Z,8.12
2018-11-28T23:36:00.952Z,8.12
2018-11-28T23:41:04.037Z,8.07
2018-11-28T23:46:07.165Z,8.05
2018-11-28T23:51:10.235Z,8.11
2018-11-28T23:56:13.302Z,8.19
